Terminal Aerodrome Forecast
Issued by NWS Jackson, KY

Home | Current Version | Previous Version | Text Only | Print | Product List | Glossary On
Versions: 1 2 3 4 5 6 7 8 9 10 11 12 13 14 15
813
FTUS43 KJKL 051120
TAFLOZ
TAF
KLOZ 051120Z 0512/0612 31004KT 6SM -SHRA BR OVC025
     FM051400 32004KT P6SM VCSH OVC025
     FM051700 33010KT P6SM OVC040
     FM060000 31004KT P6SM OVC040=

USA.gov is the U.S. government's official web portal to all federal, state and local government web resources and services.